Time;durP1;ratioP1;P1;durP2;ratioP2;P2;SDS_P1;SDS_P2;PMS_P1;PMS_P2;Temp;Humidity;BMP_temperature;BMP_pressure;BME280_temperature;BME280_humidity;BME280_pressure;Samples;Min_cycle;Max_cycle;Signal;HPM_P1;HPM_P2
2021/12/08 00:07:23;;;;;;;;;;;;;;;;;;1956117;30;2048;-88
2021/12/08 00:34:55;;;;;;;;;;;;;;;;;;2008647;29;1356;-87
2021/12/08 00:36:32;;;;;;;;;;;;;;;;;;2012635;29;1264;-87
2021/12/08 00:41:55;;;;;;;;;;;;;;;;;;1988460;29;1280;-89
2021/12/08 00:51:14;;;;;;;;;;;;;;;;;;2035765;29;1071;-87
2021/12/08 00:55:18;;;;;;;;;;;;;;;;;;2025878;29;1400;-87
2021/12/08 00:59:10;;;;;;;;;;;;;;;;;;2047514;29;1405;-88
2021/12/08 01:00:50;;;;;;;;;;;;;;;;;;2047841;29;1298;-88
2021/12/08 01:04:45;;;;;;;;;;;;;;;;;;2040289;29;1383;-88
2021/12/08 01:21:09;;;;;;;;;;;;;;;;;;2057978;28;725;-87
2021/12/08 01:22:17;;;;;;;;;;;;;;;;;;2070951;28;1439;-87
2021/12/08 01:23:22;;;;;;;;;;;;;;;;;;2085872;28;1216;-87
2021/12/08 01:24:25;;;;;;;;;;;;;;;;;;2082410;28;1281;-87
2021/12/08 01:25:34;;;;;;;;;;;;;;;;;;2082591;28;1250;-87
2021/12/08 01:28:22;;;;;;;;;;;;;;;;;;2094306;28;1429;-87
2021/12/08 01:29:37;;;;;;;;;;;;;;;;;;2090464;28;1264;-87
2021/12/08 01:31:06;;;;;;;;;;;;;;;;;;2092305;28;1348;-87
2021/12/08 01:32:10;;;;;;;;;;;;;;;;;;2090483;28;1340;-87
2021/12/08 01:33:15;;;;;;;;;;;;;;;;;;2082412;28;1232;-87
2021/12/08 01:34:18;;;;;;;;;;;;;;;;;;2082722;28;1296;-86
2021/12/08 01:35:26;;;;;;;;;;;;;;;;;;2090988;28;1337;-87
2021/12/08 01:36:27;;;;;;;;;;;;;;;;;;2083170;28;1317;-87
2021/12/08 01:37:50;;;;;;;;;;;;;;;;;;2073936;28;1413;-87
2021/12/08 01:42:15;;;;;;;;;;;;;;;;;;2098344;28;1297;-87
2021/12/08 01:43:28;;;;;;;;;;;;;;;;;;2090082;28;1319;-87
2021/12/08 01:46:39;;;;;;;;;;;;;;;;;;2095363;28;1330;-87
2021/12/08 01:47:48;;;;;;;;;;;;;;;;;;2090259;28;1973;-87
2021/12/08 01:48:57;;;;;;;;;;;;;;;;;;2081867;28;1455;-87
2021/12/08 01:50:03;;;;;;;;;;;;;;;;;;2079690;28;1317;-86
2021/12/08 01:51:18;;;;;;;;;;;;;;;;;;2082241;28;1114;-87
2021/12/08 01:52:23;;;;;;;;;;;;;;;;;;2080355;28;1503;-87
2021/12/08 01:53:45;;;;;;;;;;;;;;;;;;2082851;28;1323;-87
2021/12/08 01:56:51;;;;;;;;;;;;;;;;;;2078059;28;1401;-88
2021/12/08 01:58:14;;;;;;;;;;;;;;;;;;2055635;28;1314;-87
2021/12/08 01:59:41;;;;;;;;;;;;;;;;;;2078109;28;1291;-87
2021/12/08 02:01:02;;;;;;;;;;;;;;;;;;2077904;28;1345;-86
2021/12/08 02:02:07;;;;;;;;;;;;;;;;;;2085411;28;2025;-87
2021/12/08 02:03:15;;;;;;;;;;;;;;;;;;2081951;28;1449;-87
2021/12/08 02:04:19;;;;;;;;;;;;;;;;;;2073473;28;1375;-87
2021/12/08 02:05:24;;;;;;;;;;;;;;;;;;2074412;28;1308;-86
2021/12/08 02:06:50;;;;;;;;;;;;;;;;;;2080522;28;1627;-87
2021/12/08 02:08:37;;;;;;;;;;;;;;;;;;2090701;28;1914;-89
2021/12/08 02:10:22;;;;;;;;;;;;;;;;;;2090802;28;834;-87
2021/12/08 02:13:12;;;;;;;;;;;;;;;;;;2094298;28;1225;-87
2021/12/08 02:16:37;;;;;;;;;;;;;;;;;;2065556;28;1066;-87
2021/12/08 02:18:13;;;;;;;;;;;;;;;;;;2070765;28;1503;-86
2021/12/08 02:19:33;;;;;;;;;;;;;;;;;;2088305;28;1186;-86
2021/12/08 02:20:43;;;;;;;;;;;;;;;;;;2090197;28;1267;-86
2021/12/08 02:22:14;;;;;;;;;;;;;;;;;;;;;
2021/12/08 02:23:25;;;;;;;;;;;;;;;;;;2090016;28;1173;-87
2021/12/08 02:24:41;;;;;;;;;;;;;;;;;;2092559;28;954;-87
2021/12/08 02:29:05;;;;;;;;;;;;;;;;;;2081838;28;1327;-87
2021/12/08 02:32:11;;;;;;;;;;;;;;;;;;2078179;28;1922;-87
2021/12/08 02:50:12;;;;;;;;;;;;;;;;;;2100154;28;1042;-86
2021/12/08 02:51:23;;;;;;;;;;;;;;;;;;2099460;28;1460;-86
2021/12/08 02:52:59;;;;;;;;;;;;;;;;;;2091822;28;1964;-86
2021/12/08 02:54:29;;;;;;;;;;;;;;;;;;2096786;28;1237;-87
2021/12/08 02:56:20;;;;;;;;;;;;;;;;;;;;;
2021/12/08 02:57:43;;;;;;;;;;;;;;;;;;2085176;28;1398;-86
2021/12/08 02:59:00;;;;;;;;;;;;;;;;;;2091830;28;1263;-86
2021/12/08 03:02:38;;;;;;;;;;;;;;;;;;2099858;28;2007;-86
2021/12/08 03:03:50;;;;;;;;;;;;;;;;;;2092057;28;1226;-87
2021/12/08 03:05:13;;;;;;;;;;;;;;;;;;2092860;28;1471;-87
2021/12/08 03:06:27;;;;;;;;;;;;;;;;;;2100373;28;1406;-86
2021/12/08 03:07:47;;;;;;;;;;;;;;;;;;;;;
2021/12/08 03:09:02;;;;;;;;;;;;;;;;;;2082222;28;1473;-87
2021/12/08 03:10:10;;;;;;;;;;;;;;;;;;2085210;28;1285;-86
2021/12/08 03:11:30;;;;;;;;;;;;;;;;;;2091889;28;1242;-87
2021/12/08 03:14:06;;;;;;;;;;;;;;;;;;2095568;28;1405;-87
2021/12/08 03:15:10;;;;;;;;;;;;;;;;;;2101320;28;1242;-86
2021/12/08 03:16:15;;;;;;;;;;;;;;;;;;2099696;28;1373;-86
2021/12/08 03:17:16;;;;;;;;;;;;;;;;;;2094619;28;1937;-86
2021/12/08 03:18:22;;;;;;;;;;;;;;;;;;2091624;28;1288;-86
2021/12/08 03:19:26;;;;;;;;;;;;;;;;;;2091824;28;1316;-86
2021/12/08 03:20:39;;;;;;;;;;;;;;;;;;2092059;28;1235;-86
2021/12/08 03:21:43;;;;;;;;;;;;;;;;;;2100358;28;1268;-86
2021/12/08 03:22:46;;;;;;;;;;;;;;;;;;2092058;28;1259;-86
2021/12/08 03:23:55;;;;;;;;;;;;;;;;;;2092441;28;1311;-86
2021/12/08 03:25:01;;;;;;;;;;;;;;;;;;2092107;28;1409;-86
2021/12/08 03:26:14;;;;;;;;;;;;;;;;;;2084850;28;1386;-86
2021/12/08 03:27:20;;;;;;;;;;;;;;;;;;2097496;28;1996;-87
2021/12/08 03:28:26;;;;;;;;;;;;;;;;;;2108513;28;1914;-86
2021/12/08 03:29:35;;;;;;;;;;;;;;;;;;2108703;28;1093;-86
2021/12/08 03:30:51;;;;;;;;;;;;;;;;;;2100015;28;1338;-86
2021/12/08 03:32:03;;;;;;;;;;;;;;;;;;2100083;28;1905;-86
2021/12/08 03:33:16;;;;;;;;;;;;;;;;;;2093828;28;1243;-86
2021/12/08 03:34:26;;;;;;;;;;;;;;;;;;2101347;28;1259;-86
2021/12/08 03:35:30;;;;;;;;;;;;;;;;;;2100225;28;1352;-87
2021/12/08 03:36:34;;;;;;;;;;;;;;;;;;2092399;28;1485;-87
2021/12/08 03:37:37;;;;;;;;;;;;;;;;;;2092076;28;1264;-86
2021/12/08 03:38:45;;;;;;;;;;;;;;;;;;2092020;28;1290;-86
2021/12/08 03:39:48;;;;;;;;;;;;;;;;;;2092928;28;1160;-86
2021/12/08 03:40:52;;;;;;;;;;;;;;;;;;2100391;28;1235;-86
2021/12/08 03:41:56;;;;;;;;;;;;;;;;;;2100006;28;1175;-86
2021/12/08 03:43:05;;;;;;;;;;;;;;;;;;2092328;28;1219;-86
2021/12/08 03:44:09;;;;;;;;;;;;;;;;;;2092503;28;1465;-85
2021/12/08 03:45:11;;;;;;;;;;;;;;;;;;2092194;28;1201;-86
2021/12/08 03:46:17;;;;;;;;;;;;;;;;;;2092177;28;1461;-86
2021/12/08 03:47:25;;;;;;;;;;;;;;;;;;2092399;28;1231;-86
2021/12/08 03:48:32;;;;;;;;;;;;;;;;;;2092345;28;1976;-86
2021/12/08 03:49:33;;;;;;;;;;;;;;;;;;2092792;28;1342;-86
2021/12/08 03:50:37;;;;;;;;;;;;;;;;;;2091317;28;1342;-86
2021/12/08 03:51:38;;;;;;;;;;;;;;;;;;2092110;28;1220;-86
2021/12/08 03:52:44;;;;;;;;;;;;;;;;;;2091725;28;1208;-87
2021/12/08 03:53:50;;;;;;;;;;;;;;;;;;2092408;28;1338;-87
2021/12/08 03:54:52;;;;;;;;;;;;;;;;;;2091687;28;1325;-86
2021/12/08 03:55:54;;;;;;;;;;;;;;;;;;2100070;28;1165;-86
2021/12/08 03:56:55;;;;;;;;;;;;;;;;;;2098597;28;1238;-86
2021/12/08 03:57:59;;;;;;;;;;;;;;;;;;2091530;28;1371;-86
2021/12/08 03:59:15;;;;;;;;;;;;;;;;;;2092054;28;1210;-86
2021/12/08 04:00:18;;;;;;;;;;;;;;;;;;2100083;28;1185;-86
2021/12/08 04:01:20;;;;;;;;;;;;;;;;;;2108313;28;1313;-86
2021/12/08 04:02:28;;;;;;;;;;;;;;;;;;2099897;28;1223;-86
2021/12/08 04:03:35;;;;;;;;;;;;;;;;;;2092628;28;1206;-86
2021/12/08 04:04:50;;;;;;;;;;;;;;;;;;2092197;28;1247;-86
2021/12/08 04:06:02;;;;;;;;;;;;;;;;;;2102400;28;1342;-86
2021/12/08 04:07:06;;;;;;;;;;;;;;;;;;2099538;28;1049;-86
2021/12/08 04:08:15;;;;;;;;;;;;;;;;;;2091655;28;1927;-86
2021/12/08 04:09:25;;;;;;;;;;;;;;;;;;2092736;28;1364;-86
2021/12/08 04:10:26;;;;;;;;;;;;;;;;;;2091551;28;1212;-86
2021/12/08 04:11:28;;;;;;;;;;;;;;;;;;2083196;28;1272;-86
2021/12/08 04:12:30;;;;;;;;;;;;;;;;;;2091058;28;1231;-86
2021/12/08 04:13:45;;;;;;;;;;;;;;;;;;2091208;28;1437;-86
2021/12/08 04:15:05;;;;;;;;;;;;;;;;;;2093375;28;1460;-86
2021/12/08 04:16:44;;;;;;;;;;;;;;;;;;2091151;28;1251;-86
2021/12/08 04:18:01;;;;;;;;;;;;;;;;;;2079760;28;1243;-86
2021/12/08 04:21:03;;;;;;;;;;;;;;;;;;2082812;28;1348;-86
2021/12/08 04:22:18;;;;;;;;;;;;;;;;;;2078019;28;1398;-86
2021/12/08 04:23:36;;;;;;;;;;;;;;;;;;2083628;28;1343;-86
2021/12/08 04:26:13;;;;;;;;;;;;;;;;;;2086330;28;1265;-87
2021/12/08 04:27:15;;;;;;;;;;;;;;;;;;2091529;28;1192;-86
2021/12/08 04:28:18;;;;;;;;;;;;;;;;;;2083101;28;1910;-86
2021/12/08 04:29:29;;;;;;;;;;;;;;;;;;2075966;28;1138;-86
2021/12/08 04:30:44;;;;;;;;;;;;;;;;;;2084326;28;1307;-86
2021/12/08 04:32:01;;;;;;;;;;;;;;;;;;2084895;28;1366;-87
2021/12/08 04:33:20;;;;;;;;;;;;;;;;;;2091528;28;1215;-87
2021/12/08 04:34:33;;;;;;;;;;;;;;;;;;2082978;28;1301;-87
2021/12/08 04:36:00;;;;;;;;;;;;;;;;;;2083184;28;1269;-87
2021/12/08 04:37:34;;;;;;;;;;;;;;;;;;2083960;28;1352;-86
2021/12/08 04:39:25;;;;;;;;;;;;;;;;;;2082309;28;1492;-87
2021/12/08 04:41:00;;;;;;;;;;;;;;;;;;2083038;28;1199;-87
2021/12/08 04:42:17;;;;;;;;;;;;;;;;;;2078456;28;1348;-87
2021/12/08 04:43:28;;;;;;;;;;;;;;;;;;2077185;28;1292;-87
2021/12/08 04:44:36;;;;;;;;;;;;;;;;;;2075909;28;1250;-87
2021/12/08 04:46:30;;;;;;;;;;;;;;;;;;2087543;28;726;-87
2021/12/08 04:47:52;;;;;;;;;;;;;;;;;;2083011;28;1141;-87
2021/12/08 04:50:04;;;;;;;;;;;;;;;;;;2088406;28;1960;-87
2021/12/08 04:51:18;;;;;;;;;;;;;;;;;;2090770;28;1236;-86
2021/12/08 04:52:31;;;;;;;;;;;;;;;;;;2090535;28;1351;-86
2021/12/08 04:54:04;;;;;;;;;;;;;;;;;;2083032;28;1260;-86
2021/12/08 05:02:36;;;;;;;;;;;;;;;;;;2088568;28;2115;-86
2021/12/08 05:04:05;;;;;;;;;;;;;;;;;;2094204;28;1220;-86
2021/12/08 05:06:40;;;;;;;;;;;;;;;;;;2088201;28;1250;-86
2021/12/08 05:07:53;;;;;;;;;;;;;;;;;;2082672;28;1224;-86
2021/12/08 05:09:06;;;;;;;;;;;;;;;;;;2076181;28;1902;-85
2021/12/08 05:12:22;;;;;;;;;;;;;;;;;;2080598;28;1535;-86
2021/12/08 05:16:28;;;;;;;;;;;;;;;;;;;;;
2021/12/08 05:31:33;;;;;;;;;;;;;;;;;;2029685;29;1501;-87
2021/12/08 05:33:13;;;;;;;;;;;;;;;;;;2043237;29;1373;-87
2021/12/08 05:35:11;;;;;;;;;;;;;;;;;;;;;
2021/12/08 05:43:16;;;;;;;;;;;;;;;;;;2042246;29;687;-87
2021/12/08 05:54:20;;;;;;;;;;;;;;;;;;2035193;29;1246;-88
2021/12/08 06:22:42;;;;;;;;;;;;;;;;;;1986187;29;2191;-88
2021/12/08 07:19:32;;;;;;;;;;;;;;;;;;2018010;29;1011;-88
2021/12/08 07:21:02;;;;;;;;;;;;;;;;;;2031139;29;1287;-88
2021/12/08 07:22:04;;;;;;;;;;;;;;;;;;2027003;29;1691;-87
2021/12/08 07:23:06;;;;;;;;;;;;;;;;;;2027636;29;1663;-87
2021/12/08 07:24:10;;;;;;;;;;;;;;;;;;2036237;29;1663;-86
2021/12/08 07:25:12;;;;;;;;;;;;;;;;;;2059614;28;1380;-87
2021/12/08 07:26:15;;;;;;;;;;;;;;;;;;2067080;28;1629;-86
2021/12/08 07:27:18;;;;;;;;;;;;;;;;;;2081517;28;1282;-86
2021/12/08 07:28:20;;;;;;;;;;;;;;;;;;2074664;28;1513;-86
2021/12/08 07:29:24;;;;;;;;;;;;;;;;;;2075177;28;1974;-86
2021/12/08 07:30:27;;;;;;;;;;;;;;;;;;2082146;28;1172;-86
2021/12/08 07:31:30;;;;;;;;;;;;;;;;;;2069289;28;1304;-86
2021/12/08 07:32:36;;;;;;;;;;;;;;;;;;2075277;28;1276;-86
2021/12/08 07:33:38;;;;;;;;;;;;;;;;;;2075906;28;1308;-86
2021/12/08 07:34:41;;;;;;;;;;;;;;;;;;2081921;28;1376;-86
2021/12/08 07:35:46;;;;;;;;;;;;;;;;;;2091886;28;1241;-86
2021/12/08 07:36:51;;;;;;;;;;;;;;;;;;2091102;28;2052;-87
2021/12/08 07:37:53;;;;;;;;;;;;;;;;;;2075942;28;1185;-87
2021/12/08 07:38:55;;;;;;;;;;;;;;;;;;2067560;28;1401;-87
2021/12/08 07:39:59;;;;;;;;;;;;;;;;;;2091938;28;823;-87
2021/12/08 07:41:08;;;;;;;;;;;;;;;;;;2100394;28;1155;-87
2021/12/08 07:42:16;;;;;;;;;;;;;;;;;;2091169;28;1881;-86
2021/12/08 07:43:20;;;;;;;;;;;;;;;;;;2084661;28;1295;-89
2021/12/08 07:44:24;;;;;;;;;;;;;;;;;;2092016;28;1682;-88
2021/12/08 07:45:30;;;;;;;;;;;;;;;;;;2091714;28;1361;-87
2021/12/08 07:46:33;;;;;;;;;;;;;;;;;;2083914;28;1341;-88
2021/12/08 07:47:37;;;;;;;;;;;;;;;;;;2083821;28;1270;-88
2021/12/08 07:48:41;;;;;;;;;;;;;;;;;;2075182;28;1437;-88
2021/12/08 07:49:57;;;;;;;;;;;;;;;;;;2083216;28;1914;-86
2021/12/08 07:51:00;;;;;;;;;;;;;;;;;;2084261;28;1358;-85
2021/12/08 07:52:04;;;;;;;;;;;;;;;;;;2091824;28;1260;-87
2021/12/08 07:53:07;;;;;;;;;;;;;;;;;;2100699;28;776;-87
2021/12/08 07:54:10;;;;;;;;;;;;;;;;;;2082561;28;1753;-88
2021/12/08 07:55:17;;;;;;;;;;;;;;;;;;2083449;28;1275;-89
2021/12/08 07:56:29;;;;;;;;;;;;;;;;;;2090766;28;1382;-90
2021/12/08 07:57:34;;;;;;;;;;;;;;;;;;2089993;28;1269;-87
2021/12/08 07:58:39;;;;;;;;;;;;;;;;;;2092022;28;1290;-87
2021/12/08 07:59:43;;;;;;;;;;;;;;;;;;2082880;28;1347;-85
2021/12/08 08:00:46;;;;;;;;;;;;;;;;;;2084012;28;1284;-88
2021/12/08 08:01:50;;;;;;;;;;;;;;;;;;2091865;28;1364;-89
2021/12/08 08:02:53;;;;;;;;;;;;;;;;;;2083839;28;1776;-88
2021/12/08 08:03:55;;;;;;;;;;;;;;;;;;2090731;28;1816;-92
2021/12/08 08:04:59;;;;;;;;;;;;;;;;;;2086391;28;1463;-86
2021/12/08 08:06:32;;;;;;;;;;;;;;;;;;2091515;28;1328;-88
2021/12/08 08:08:02;;;;;;;;;;;;;;;;;;2093068;28;1339;-87
2021/12/08 08:11:00;;;;;;;;;;;;;;;;;;2054859;28;986;-86
2021/12/08 08:13:44;;;;;;;;;;;;;;;;;;2071290;28;1581;-87
2021/12/08 08:15:00;;;;;;;;;;;;;;;;;;2058478;28;1354;-88
2021/12/08 08:16:31;;;;;;;;;;;;;;;;;;2096004;28;1190;-87
2021/12/08 08:38:04;;;;;;;;;;;;;;;;;;2024373;29;1462;-87
2021/12/08 08:49:14;;;;;;;;;;;;;;;;;;2034152;29;1036;-89
2021/12/08 08:50:51;;;;;;;;;;;;;;;;;;2040525;29;1911;-88
2021/12/08 08:58:44;;;;;;;;;;;;;;;;;;2009237;29;1804;-90
2021/12/08 09:44:41;;;;;;;;;;;;;;;;;;1985632;29;1355;-87
2021/12/08 10:01:49;;;;;;;;;;;;;;;;;;1980293;29;1571;-91
2021/12/08 10:14:52;;;;;;;;;;;;;;;;;;1979648;29;1534;-90
2021/12/08 10:47:45;;;;;;;;;;;;;;;;;;2013825;29;1405;-89
2021/12/08 10:48:53;;;;;;;;;;;;;;;;;;2018596;29;1455;-90
2021/12/08 10:55:45;;;;;;;;;;;;;;;;;;2005846;29;1603;-87
2021/12/08 10:56:47;;;;;;;;;;;;;;;;;;2001769;29;2112;-87
2021/12/08 10:59:56;;;;;;;;;;;;;;;;;;2017154;29;1263;-89
2021/12/08 11:01:53;;;;;;;;;;;;;;;;;;2028868;29;1284;-89
2021/12/08 11:03:46;;;;;;;;;;;;;;;;;;2037315;29;1617;-87
2021/12/08 11:07:45;;;;;;;;;;;;;;;;;;2036770;29;1404;-88
2021/12/08 11:13:17;;;;;;;;;;;;;;;;;;;;;
2021/12/08 11:43:28;;;;;;;;;;;;;;;;;;2533547;23;1264;-83
2021/12/08 11:44:47;;;;;;;;;;;;;;;;;;2533861;23;1472;-86
2021/12/08 11:46:10;;;;;;;;;;;;;;;;;;2515954;23;1380;-86
2021/12/08 11:47:27;;;;;;;;;;;;;;;;;;2580346;23;1329;-85
2021/12/08 11:48:57;;;;;;;;;;;;;;;;;;2577253;23;1370;-84
2021/12/08 11:54:32;;;;;;;;;;;;;;;;;;2512020;23;1233;-87
2021/12/08 11:55:45;;;;;;;;;;;;;;;;;;2557064;23;1445;-82
2021/12/08 11:56:49;;;;;;;;;;;;;;;;;;2565302;23;1355;-84
2021/12/08 11:58:11;;;;;;;;;;;;;;;;;;2563000;23;1140;-85
2021/12/08 11:59:16;;;;;;;;;;;;;;;;;;2567073;23;1308;-85
2021/12/08 12:00:24;;;;;;;;;;;;;;;;;;2576165;23;854;-86
2021/12/08 12:02:02;;;;;;;;;;;;;;;;;;2575688;23;779;-85
2021/12/08 12:03:23;;;;;;;;;;;;;;;;;;2574853;23;1272;-83
2021/12/08 12:04:51;;;;;;;;;;;;;;;;;;2581506;23;1404;-86
2021/12/08 12:05:55;;;;;;;;;;;;;;;;;;2562393;23;1222;-85
2021/12/08 12:07:02;;;;;;;;;;;;;;;;;;2549977;23;1285;-86
2021/12/08 12:08:05;;;;;;;;;;;;;;;;;;2563946;23;1176;-83
2021/12/08 12:09:26;;;;;;;;;;;;;;;;;;;;;
2021/12/08 12:28:58;;;;;;;;;;;;;;;;;;2417458;24;934;-87
2021/12/08 13:01:44;;;;;;;;;;;;;;;;;;2372519;25;1311;-85
2021/12/08 13:32:28;;;;;;;;;;;;;;;;;;2431334;24;1440;-85
2021/12/08 13:52:18;;;;;;;;;;;;;;;;;;2406816;24;1610;-87
2021/12/08 15:29:22;;;;;;;;;;;;;;;;;;2449123;23;1108;-88
2021/12/08 15:30:36;;;;;;;;;;;;;;;;;;2505340;23;1315;-88
2021/12/08 15:31:39;;;;;;;;;;;;;;;;;;2508760;23;1274;-85
2021/12/08 15:32:43;;;;;;;;;;;;;;;;;;2509761;23;1297;-87
2021/12/08 15:33:48;;;;;;;;;;;;;;;;;;2521267;23;1445;-83
2021/12/08 15:34:48;;;;;;;;;;;;;;;;;;2533333;23;1256;-84
2021/12/08 15:38:15;;;;;;;;;;;;;;;;;;2535999;23;1130;-86
2021/12/08 15:39:24;;;;;;;;;;;;;;;;;;2544367;23;1297;-85
2021/12/08 15:42:56;;;;;;;;;;;;;;;;;;2545302;23;1889;-90
2021/12/08 15:44:23;;;;;;;;;;;;;;;;;;2522636;23;1325;-87
2021/12/08 15:45:29;;;;;;;;;;;;;;;;;;2504481;23;1579;-85
2021/12/08 15:46:32;;;;;;;;;;;;;;;;;;2508428;23;1086;-84
2021/12/08 15:47:37;;;;;;;;;;;;;;;;;;2496686;23;1288;-86
2021/12/08 15:48:48;;;;;;;;;;;;;;;;;;2497814;23;1544;-87
2021/12/08 15:51:40;;;;;;;;;;;;;;;;;;2508578;23;1352;-84
2021/12/08 15:55:18;;;;;;;;;;;;;;;;;;2525702;23;1497;-87
2021/12/08 16:05:11;;;;;;;;;;;;;;;;;;2534808;23;586;-84
2021/12/08 16:06:12;;;;;;;;;;;;;;;;;;2522022;23;1342;-83
2021/12/08 16:07:14;;;;;;;;;;;;;;;;;;2531440;23;1034;-84
2021/12/08 16:08:15;;;;;;;;;;;;;;;;;;2569742;23;1348;-83
2021/12/08 16:09:24;;;;;;;;;;;;;;;;;;2560394;23;1261;-86
2021/12/08 16:10:31;;;;;;;;;;;;;;;;;;2537996;23;1321;-85
2021/12/08 16:16:28;;;;;;;;;;;;;;;;;;2573532;23;586;-84
2021/12/08 16:17:34;;;;;;;;;;;;;;;;;;2573114;23;1455;-84
2021/12/08 16:18:36;;;;;;;;;;;;;;;;;;2573281;23;793;-85
2021/12/08 16:19:45;;;;;;;;;;;;;;;;;;2560228;23;1392;-83
2021/12/08 16:20:49;;;;;;;;;;;;;;;;;;2548977;23;1236;-84
2021/12/08 16:21:50;;;;;;;;;;;;;;;;;;2559901;23;1281;-84
2021/12/08 16:22:52;;;;;;;;;;;;;;;;;;2572624;23;1948;-84
2021/12/08 16:23:53;;;;;;;;;;;;;;;;;;2573590;23;1061;-87
2021/12/08 16:24:54;;;;;;;;;;;;;;;;;;2572734;23;1453;-85
2021/12/08 16:25:58;;;;;;;;;;;;;;;;;;2572720;23;1117;-83
2021/12/08 16:27:01;;;;;;;;;;;;;;;;;;2573420;23;859;-84
2021/12/08 16:28:03;;;;;;;;;;;;;;;;;;2559494;23;1345;-89
2021/12/08 16:29:06;;;;;;;;;;;;;;;;;;2559211;23;1292;-87
2021/12/08 16:30:14;;;;;;;;;;;;;;;;;;2557835;23;1116;-87
2021/12/08 16:31:17;;;;;;;;;;;;;;;;;;2561363;23;1346;-85
2021/12/08 16:36:57;;;;;;;;;;;;;;;;;;2573310;23;638;-85
2021/12/08 16:38:00;;;;;;;;;;;;;;;;;;2560243;23;1241;-85
2021/12/08 16:39:06;;;;;;;;;;;;;;;;;;2547680;23;1298;-83
2021/12/08 16:43:00;;;;;;;;;;;;;;;;;;2548282;23;1338;-84
2021/12/08 16:43:04;;;;;;;;;;;;;;;;;;2551636;23;1935;-84
2021/12/08 16:44:06;;;;;;;;;;;;;;;;;;2548228;23;1327;-85
2021/12/08 16:45:11;;;;;;;;;;;;;;;;;;2559881;23;1000;-85
2021/12/08 16:46:16;;;;;;;;;;;;;;;;;;2573322;23;828;-84
2021/12/08 16:47:19;;;;;;;;;;;;;;;;;;2559591;23;1134;-84
2021/12/08 16:48:29;;;;;;;;;;;;;;;;;;2547713;23;1303;-83
2021/12/08 16:49:36;;;;;;;;;;;;;;;;;;2548650;23;1255;-84
2021/12/08 17:03:21;;;;;;;;;;;;;;;;;;2509865;23;1957;-87
2021/12/08 17:12:08;;;;;;;;;;;;;;;;;;2463126;24;1287;-87
2021/12/08 17:13:48;;;;;;;;;;;;;;;;;;2497823;23;987;-87
2021/12/08 17:20:25;;;;;;;;;;;;;;;;;;2443788;24;1355;-86
2021/12/08 17:21:42;;;;;;;;;;;;;;;;;;2487179;23;1274;-86
2021/12/08 17:22:57;;;;;;;;;;;;;;;;;;2490396;23;1939;-86
2021/12/08 17:32:39;;;;;;;;;;;;;;;;;;2428988;24;712;-88
2021/12/08 17:34:51;;;;;;;;;;;;;;;;;;;;;
2021/12/08 17:45:28;;;;;;;;;;;;;;;;;;2464088;24;572;-87
2021/12/08 17:49:39;;;;;;;;;;;;;;;;;;2430010;24;592;-87
2021/12/08 17:50:41;;;;;;;;;;;;;;;;;;2429808;24;1327;-86
2021/12/08 17:51:50;;;;;;;;;;;;;;;;;;2429635;24;1278;-86
2021/12/08 17:53:10;;;;;;;;;;;;;;;;;;2418427;24;1387;-86
2021/12/08 17:54:23;;;;;;;;;;;;;;;;;;2442622;24;929;-86
2021/12/08 17:55:26;;;;;;;;;;;;;;;;;;2455401;24;1242;-87
2021/12/08 17:56:44;;;;;;;;;;;;;;;;;;2509506;23;1354;-87
2021/12/08 17:58:23;;;;;;;;;;;;;;;;;;2534610;23;807;-85
2021/12/08 18:00:09;;;;;;;;;;;;;;;;;;2514961;23;1505;-86
2021/12/08 18:01:21;;;;;;;;;;;;;;;;;;2533981;23;1301;-86
2021/12/08 18:02:27;;;;;;;;;;;;;;;;;;2546174;23;1221;-86
2021/12/08 18:08:02;;;;;;;;;;;;;;;;;;2514351;23;635;-88
2021/12/08 18:09:09;;;;;;;;;;;;;;;;;;2510505;23;1446;-87
2021/12/08 18:10:24;;;;;;;;;;;;;;;;;;2499348;23;1461;-87
2021/12/08 18:11:49;;;;;;;;;;;;;;;;;;2514138;23;1293;-89
2021/12/08 18:15:06;;;;;;;;;;;;;;;;;;2559504;23;1222;-88
2021/12/08 18:16:39;;;;;;;;;;;;;;;;;;2546598;23;1337;-89
2021/12/08 18:20:14;;;;;;;;;;;;;;;;;;2558062;23;1047;-89
2021/12/08 18:21:17;;;;;;;;;;;;;;;;;;2547229;23;1081;-89
2021/12/08 18:24:02;;;;;;;;;;;;;;;;;;2530243;23;1947;-91
2021/12/08 18:25:24;;;;;;;;;;;;;;;;;;2535784;23;1331;-87
2021/12/08 18:26:36;;;;;;;;;;;;;;;;;;2546034;23;1427;-86
2021/12/08 18:27:50;;;;;;;;;;;;;;;;;;2537738;23;1278;-86
2021/12/08 18:28:57;;;;;;;;;;;;;;;;;;2535808;23;1397;-89
2021/12/08 18:30:01;;;;;;;;;;;;;;;;;;2535915;23;1329;-86
2021/12/08 18:32:38;;;;;;;;;;;;;;;;;;2538280;23;1451;-86
2021/12/08 18:34:04;;;;;;;;;;;;;;;;;;2552752;23;1055;-85
2021/12/08 18:35:15;;;;;;;;;;;;;;;;;;2546944;23;1350;-85
2021/12/08 18:36:28;;;;;;;;;;;;;;;;;;2536510;23;1157;-85
2021/12/08 18:37:39;;;;;;;;;;;;;;;;;;2551161;23;1211;-86
2021/12/08 18:38:45;;;;;;;;;;;;;;;;;;2546219;23;1225;-86
2021/12/08 18:39:47;;;;;;;;;;;;;;;;;;2539260;23;1342;-86
2021/12/08 18:40:52;;;;;;;;;;;;;;;;;;2534678;23;1219;-88
2021/12/08 18:41:57;;;;;;;;;;;;;;;;;;2547875;23;1286;-87
2021/12/08 18:42:58;;;;;;;;;;;;;;;;;;2547414;23;1393;-87
2021/12/08 18:44:03;;;;;;;;;;;;;;;;;;2533385;23;1949;-87
2021/12/08 18:45:08;;;;;;;;;;;;;;;;;;2535576;23;891;-88
2021/12/08 18:46:11;;;;;;;;;;;;;;;;;;2545037;23;1182;-88
2021/12/08 18:47:19;;;;;;;;;;;;;;;;;;2547746;23;1393;-89
2021/12/08 18:48:22;;;;;;;;;;;;;;;;;;2547800;23;1419;-87
2021/12/08 18:49:27;;;;;;;;;;;;;;;;;;2547435;23;1391;-87
2021/12/08 18:50:28;;;;;;;;;;;;;;;;;;2547308;23;1267;-86
2021/12/08 18:51:34;;;;;;;;;;;;;;;;;;2546614;23;1406;-88
2021/12/08 18:52:35;;;;;;;;;;;;;;;;;;2546092;23;1297;-86
2021/12/08 18:53:46;;;;;;;;;;;;;;;;;;2547383;23;835;-87
2021/12/08 18:54:52;;;;;;;;;;;;;;;;;;2548205;23;1394;-89
2021/12/08 18:55:56;;;;;;;;;;;;;;;;;;2546831;23;1389;-86
2021/12/08 18:56:57;;;;;;;;;;;;;;;;;;2546608;23;1276;-86
2021/12/08 18:58:06;;;;;;;;;;;;;;;;;;2546238;23;1265;-88
2021/12/08 18:59:19;;;;;;;;;;;;;;;;;;2560238;23;1041;-87
2021/12/08 19:00:26;;;;;;;;;;;;;;;;;;2558805;23;1263;-87
2021/12/08 19:01:43;;;;;;;;;;;;;;;;;;2547598;23;1248;-87
2021/12/08 19:02:50;;;;;;;;;;;;;;;;;;2549509;23;1382;-86
2021/12/08 19:04:08;;;;;;;;;;;;;;;;;;2561168;23;1944;-87
2021/12/08 19:05:09;;;;;;;;;;;;;;;;;;2557997;23;1396;-88
2021/12/08 19:06:44;;;;;;;;;;;;;;;;;;2548658;23;1312;-87
2021/12/08 19:07:47;;;;;;;;;;;;;;;;;;2544044;23;1298;-86
2021/12/08 19:08:52;;;;;;;;;;;;;;;;;;2546851;23;1266;-86
2021/12/08 19:09:53;;;;;;;;;;;;;;;;;;2547425;23;1234;-89
2021/12/08 19:10:57;;;;;;;;;;;;;;;;;;2546598;23;1276;-86
2021/12/08 19:12:01;;;;;;;;;;;;;;;;;;2546125;23;1348;-85
2021/12/08 19:13:05;;;;;;;;;;;;;;;;;;2547206;23;1459;-85
2021/12/08 19:14:08;;;;;;;;;;;;;;;;;;2559527;23;1044;-85
2021/12/08 19:15:10;;;;;;;;;;;;;;;;;;2558305;23;1382;-86
2021/12/08 19:16:12;;;;;;;;;;;;;;;;;;2545944;23;1410;-86
2021/12/08 19:17:13;;;;;;;;;;;;;;;;;;2546509;23;1542;-85
2021/12/08 19:18:15;;;;;;;;;;;;;;;;;;2546497;23;1208;-86
2021/12/08 19:19:19;;;;;;;;;;;;;;;;;;2547011;23;1259;-85
2021/12/08 19:20:21;;;;;;;;;;;;;;;;;;2545372;23;1176;-85
2021/12/08 19:21:23;;;;;;;;;;;;;;;;;;2559310;23;752;-86
2021/12/08 19:22:26;;;;;;;;;;;;;;;;;;2545978;23;1195;-87
2021/12/08 19:23:28;;;;;;;;;;;;;;;;;;2535584;23;1302;-86
2021/12/08 19:24:34;;;;;;;;;;;;;;;;;;2546548;23;1996;-86
2021/12/08 19:25:37;;;;;;;;;;;;;;;;;;2535740;23;1320;-87
2021/12/08 19:26:42;;;;;;;;;;;;;;;;;;2535531;23;1226;-87
2021/12/08 19:27:43;;;;;;;;;;;;;;;;;;2534633;23;1410;-86
2021/12/08 19:28:45;;;;;;;;;;;;;;;;;;2522556;23;1315;-88
2021/12/08 19:29:47;;;;;;;;;;;;;;;;;;2546937;23;1075;-86
2021/12/08 19:30:49;;;;;;;;;;;;;;;;;;2545914;23;1346;-87
2021/12/08 19:31:51;;;;;;;;;;;;;;;;;;2546911;23;1333;-87
2021/12/08 19:32:52;;;;;;;;;;;;;;;;;;2558707;23;1444;-87
2021/12/08 19:33:57;;;;;;;;;;;;;;;;;;2546688;23;1320;-88
2021/12/08 19:34:58;;;;;;;;;;;;;;;;;;2535370;23;1284;-86
2021/12/08 19:36:02;;;;;;;;;;;;;;;;;;2534226;23;1239;-86
2021/12/08 19:37:03;;;;;;;;;;;;;;;;;;2547089;23;1280;-86
2021/12/08 19:38:07;;;;;;;;;;;;;;;;;;2547856;23;771;-87
2021/12/08 19:39:12;;;;;;;;;;;;;;;;;;2546744;23;1359;-87
2021/12/08 19:40:15;;;;;;;;;;;;;;;;;;2546820;23;1294;-87
2021/12/08 19:41:17;;;;;;;;;;;;;;;;;;2558976;23;1266;-86
2021/12/08 19:42:21;;;;;;;;;;;;;;;;;;2558502;23;1238;-86
2021/12/08 19:43:28;;;;;;;;;;;;;;;;;;2547283;23;1392;-86
2021/12/08 19:44:29;;;;;;;;;;;;;;;;;;2548021;23;1896;-86
2021/12/08 19:45:32;;;;;;;;;;;;;;;;;;2559728;23;1069;-87
2021/12/08 19:46:35;;;;;;;;;;;;;;;;;;2547432;23;1075;-86
2021/12/08 19:47:35;;;;;;;;;;;;;;;;;;2548431;23;760;-87
2021/12/08 19:48:38;;;;;;;;;;;;;;;;;;2572642;23;1159;-86
2021/12/08 19:50:17;;;;;;;;;;;;;;;;;;2547322;23;1252;-89
2021/12/08 19:51:57;;;;;;;;;;;;;;;;;;2532900;23;1310;-88
2021/12/08 19:53:07;;;;;;;;;;;;;;;;;;2563653;23;1048;-87
2021/12/08 19:54:10;;;;;;;;;;;;;;;;;;2559280;23;1287;-87
2021/12/08 19:55:11;;;;;;;;;;;;;;;;;;2547758;23;1313;-86
2021/12/08 19:56:13;;;;;;;;;;;;;;;;;;2547453;23;1168;-86
2021/12/08 19:57:16;;;;;;;;;;;;;;;;;;2547335;23;1326;-87
2021/12/08 19:58:19;;;;;;;;;;;;;;;;;;2535700;23;1542;-87
2021/12/08 19:59:21;;;;;;;;;;;;;;;;;;2548500;23;757;-85
2021/12/08 20:00:27;;;;;;;;;;;;;;;;;;2547296;23;1441;-89
2021/12/08 20:01:29;;;;;;;;;;;;;;;;;;2547617;23;1423;-86
2021/12/08 20:02:30;;;;;;;;;;;;;;;;;;2559450;23;1328;-86
2021/12/08 20:03:32;;;;;;;;;;;;;;;;;;2560140;23;1197;-86
2021/12/08 20:04:34;;;;;;;;;;;;;;;;;;2547177;23;1896;-86
2021/12/08 20:05:37;;;;;;;;;;;;;;;;;;2547795;23;1496;-86
2021/12/08 20:06:40;;;;;;;;;;;;;;;;;;2559466;23;1175;-86
2021/12/08 20:07:41;;;;;;;;;;;;;;;;;;2559324;23;1374;-85